createdAt,value
2023-05-20T00:00:11.352Z,11.40
2023-05-20T00:03:01.221Z,11.40
2023-05-20T00:05:29.038Z,11.40
2023-05-20T00:07:57.095Z,11.50
2023-05-20T00:10:24.647Z,11.40
2023-05-20T00:12:52.832Z,11.40
2023-05-20T00:15:20.532Z,11.40
2023-05-20T00:17:48.549Z,11.40
2023-05-20T00:20:16.303Z,11.40
2023-05-20T00:22:44.349Z,11.40
2023-05-20T00:25:14.884Z,11.40
2023-05-20T00:27:42.962Z,11.40
2023-05-20T00:30:11.715Z,11.40
2023-05-20T00:32:39.910Z,11.40
2023-05-20T00:35:08.130Z,11.40
2023-05-20T00:37:36.285Z,11.40
2023-05-20T00:40:04.227Z,11.40
2023-05-20T00:42:32.208Z,11.40
2023-05-20T00:45:00.905Z,11.40
2023-05-20T00:47:34.689Z,11.40
2023-05-20T00:50:03.645Z,11.40
2023-05-20T00:52:32.979Z,11.40
2023-05-20T00:55:01.294Z,11.40
2023-05-20T00:57:29.971Z,11.40
2023-05-20T00:59:57.965Z,11.40
2023-05-20T01:02:26.096Z,11.40
2023-05-20T01:04:56.936Z,11.40
2023-05-20T01:07:26.187Z,11.40
2023-05-20T01:09:56.185Z,11.40
2023-05-20T01:12:31.314Z,11.40
2023-05-20T01:15:02.233Z,11.40
2023-05-20T01:17:33.390Z,11.40
2023-05-20T01:20:04.641Z,11.30
2023-05-20T01:22:32.720Z,11.40
2023-05-20T01:25:00.319Z,11.40
2023-05-20T01:27:32.549Z,11.40
2023-05-20T01:30:00.971Z,11.30
2023-05-20T01:32:44.151Z,11.40
2023-05-20T01:35:12.402Z,11.40
2023-05-20T01:37:41.728Z,11.30
2023-05-20T01:40:11.793Z,11.30
2023-05-20T01:42:40.202Z,11.40
2023-05-20T01:45:08.353Z,11.30
2023-05-20T01:47:37.521Z,11.30
2023-05-20T01:50:05.807Z,11.30
2023-05-20T01:52:34.020Z,11.30
2023-05-20T01:55:01.933Z,11.30
2023-05-20T01:57:30.980Z,11.30
2023-05-20T01:59:58.844Z,11.30
2023-05-20T02:02:29.551Z,11.30
2023-05-20T02:04:57.955Z,11.30
2023-05-20T02:07:25.812Z,11.30
2023-05-20T02:09:53.470Z,11.30
2023-05-20T02:12:22.404Z,11.30
2023-05-20T02:14:50.739Z,11.30
2023-05-20T02:17:18.887Z,11.30
2023-05-20T02:19:47.507Z,11.30
2023-05-20T02:22:15.828Z,11.30
2023-05-20T02:24:44.974Z,11.30
2023-05-20T02:27:13.260Z,11.30
2023-05-20T02:29:44.553Z,11.30
2023-05-20T02:32:12.791Z,11.30
2023-05-20T02:34:40.483Z,11.30
2023-05-20T02:37:08.509Z,11.30
2023-05-20T02:39:36.493Z,11.20
2023-05-20T02:42:05.004Z,11.20
2023-05-20T02:44:32.663Z,11.30
2023-05-20T02:47:00.742Z,11.30
2023-05-20T02:49:29.155Z,11.30
2023-05-20T02:51:57.138Z,11.30
2023-05-20T02:54:24.758Z,11.30
2023-05-20T02:56:52.775Z,11.30
2023-05-20T02:59:20.471Z,11.30
2023-05-20T03:01:48.809Z,11.30
2023-05-20T03:04:16.508Z,11.30
2023-05-20T03:06:44.872Z,11.30
2023-05-20T03:09:12.572Z,11.30
2023-05-20T03:11:41.051Z,11.30
2023-05-20T03:14:10.200Z,11.30
2023-05-20T03:16:38.265Z,11.30
2023-05-20T03:19:05.905Z,11.30
2023-05-20T03:21:34.448Z,11.40
2023-05-20T03:24:02.146Z,11.30
2023-05-20T03:26:30.807Z,11.30
2023-05-20T03:28:58.414Z,11.30
2023-05-20T03:31:26.553Z,11.30
2023-05-20T03:33:54.157Z,11.30
2023-05-20T03:36:22.397Z,11.40
2023-05-20T03:38:50.600Z,11.40
2023-05-20T03:41:18.884Z,11.40
2023-05-20T03:43:46.583Z,11.40
2023-05-20T03:46:15.923Z,11.40
2023-05-20T03:48:43.603Z,11.40
2023-05-20T03:51:13.240Z,11.40
2023-05-20T03:53:42.107Z,11.40
2023-05-20T03:56:10.221Z,11.40
2023-05-20T03:58:40.037Z,11.40
2023-05-20T04:01:08.208Z,11.50
2023-05-20T04:03:36.889Z,11.40
2023-05-20T04:06:05.497Z,11.50
2023-05-20T04:08:34.233Z,11.50
2023-05-20T04:11:06.434Z,11.50
2023-05-20T04:13:34.635Z,11.50
2023-05-20T04:16:03.186Z,11.50
2023-05-20T04:18:32.052Z,11.50
2023-05-20T04:21:01.897Z,11.50
2023-05-20T04:23:31.903Z,11.60
2023-05-20T04:26:02.914Z,11.70
2023-05-20T04:28:32.704Z,11.70
2023-05-20T04:31:04.719Z,11.70
2023-05-20T04:33:38.210Z,11.70
2023-05-20T04:36:16.675Z,11.70
2023-05-20T04:38:45.418Z,11.70
2023-05-20T04:41:13.559Z,11.80
2023-05-20T04:43:41.628Z,11.80
2023-05-20T04:46:10.020Z,11.80
2023-05-20T04:48:38.195Z,11.80
2023-05-20T04:51:06.922Z,11.90
2023-05-20T04:53:36.219Z,11.90
2023-05-20T04:56:04.586Z,11.90
2023-05-20T04:58:33.628Z,11.90
2023-05-20T05:01:02.855Z,11.90
2023-05-20T05:03:31.383Z,12.00
2023-05-20T05:06:01.124Z,12.00
2023-05-20T05:08:29.038Z,12.10
2023-05-20T05:10:56.993Z,12.20
2023-05-20T05:13:24.864Z,12.20
2023-05-20T05:16:00.499Z,12.20
2023-05-20T05:18:30.212Z,12.30
2023-05-20T05:21:05.905Z,12.20
2023-05-20T05:23:35.564Z,12.20
2023-05-20T05:26:03.921Z,12.20
2023-05-20T05:28:31.704Z,12.20
2023-05-20T05:31:02.472Z,12.30
2023-05-20T05:33:30.763Z,12.30
2023-05-20T05:35:59.497Z,12.30
2023-05-20T05:38:27.675Z,12.40
2023-05-20T05:40:55.765Z,12.50
2023-05-20T05:43:25.050Z,12.50
2023-05-20T05:45:54.271Z,12.50
2023-05-20T05:48:23.450Z,12.50
2023-05-20T05:50:51.595Z,12.50
2023-05-20T05:53:21.410Z,12.50
2023-05-20T05:55:50.339Z,12.50
2023-05-20T05:58:18.650Z,12.50
2023-05-20T06:00:46.871Z,12.50
2023-05-20T06:03:14.734Z,12.40
2023-05-20T06:05:47.551Z,12.40
2023-05-20T06:08:15.274Z,12.30
2023-05-20T06:10:51.434Z,12.30
2023-05-20T06:13:19.199Z,12.30
2023-05-20T06:15:51.180Z,12.40
2023-05-20T06:18:18.886Z,12.50
2023-05-20T06:20:47.395Z,12.50
2023-05-20T06:23:15.109Z,12.50
2023-05-20T06:26:12.489Z,12.50
2023-05-20T06:28:40.387Z,12.50
2023-05-20T06:31:09.492Z,12.50
2023-05-20T06:33:37.758Z,12.50
2023-05-20T06:36:09.546Z,12.50
2023-05-20T06:38:37.312Z,12.50
2023-05-20T06:41:07.054Z,12.60
2023-05-20T06:43:34.805Z,12.70
2023-05-20T06:46:10.061Z,12.70
2023-05-20T06:48:40.864Z,12.80
2023-05-20T06:51:09.731Z,12.80
2023-05-20T06:53:40.611Z,12.80
2023-05-20T06:56:08.704Z,12.90
2023-05-20T06:58:36.384Z,13.00
2023-05-20T07:01:04.435Z,13.00
2023-05-20T07:03:32.611Z,13.00
2023-05-20T07:06:00.644Z,12.90
2023-05-20T07:08:29.264Z,12.90
2023-05-20T07:10:57.969Z,12.90
2023-05-20T07:13:26.715Z,12.90
2023-05-20T07:15:54.913Z,12.90
2023-05-20T07:18:22.683Z,12.90
2023-05-20T07:20:57.163Z,12.90
2023-05-20T07:23:39.635Z,12.90
2023-05-20T07:26:09.521Z,13.00
2023-05-20T07:28:37.197Z,13.10
2023-05-20T07:31:06.815Z,13.10
2023-05-20T07:33:40.438Z,13.10
2023-05-20T07:36:11.254Z,13.10
2023-05-20T07:38:49.700Z,13.10
2023-05-20T07:41:26.727Z,13.10
2023-05-20T07:43:54.477Z,13.20
2023-05-20T07:46:22.770Z,13.10
2023-05-20T07:48:50.837Z,13.10
2023-05-20T07:51:19.228Z,13.10
2023-05-20T07:53:47.620Z,13.10
2023-05-20T07:56:16.605Z,13.00
2023-05-20T07:58:52.234Z,13.00
2023-05-20T08:01:21.483Z,13.10
2023-05-20T08:03:49.324Z,13.10
2023-05-20T08:06:29.345Z,13.10
2023-05-20T08:08:58.512Z,13.10
2023-05-20T08:11:31.757Z,13.20
2023-05-20T08:13:59.952Z,13.30
2023-05-20T08:16:31.333Z,13.50
2023-05-20T08:18:59.093Z,13.40
2023-05-20T08:21:27.840Z,13.30
2023-05-20T08:23:58.562Z,13.20
2023-05-20T08:26:27.151Z,13.30
2023-05-20T08:28:56.446Z,13.30
2023-05-20T08:31:26.168Z,13.20
2023-05-20T08:33:54.453Z,13.30
2023-05-20T08:36:23.461Z,13.30
2023-05-20T08:38:51.419Z,13.40
2023-05-20T08:41:19.795Z,13.30
2023-05-20T08:43:49.907Z,13.30
2023-05-20T08:46:20.526Z,13.30
2023-05-20T08:48:49.447Z,13.30
2023-05-20T08:51:22.393Z,13.30
2023-05-20T08:53:52.025Z,13.50
2023-05-20T08:56:22.246Z,13.60
2023-05-20T08:58:50.873Z,13.80
2023-05-20T09:01:19.672Z,13.90
2023-05-20T09:03:47.803Z,14.20
2023-05-20T09:06:20.495Z,14.50
2023-05-20T09:08:53.055Z,14.50
2023-05-20T09:11:23.379Z,14.50
2023-05-20T09:13:52.083Z,14.40
2023-05-20T09:16:20.438Z,14.40
2023-05-20T09:18:48.421Z,14.50
2023-05-20T09:21:17.204Z,14.80
2023-05-20T09:23:49.466Z,15.00
2023-05-20T09:26:19.301Z,15.10
2023-05-20T09:28:47.361Z,15.20
2023-05-20T09:31:15.995Z,15.40
2023-05-20T09:33:44.832Z,15.60
2023-05-20T09:36:16.372Z,15.70
2023-05-20T09:38:45.917Z,15.80
2023-05-20T09:41:15.650Z,15.90
2023-05-20T09:43:45.100Z,16.00
2023-05-20T09:46:14.023Z,16.20
2023-05-20T09:48:42.382Z,16.40
2023-05-20T09:51:11.382Z,16.10
2023-05-20T09:53:39.340Z,16.00
2023-05-20T09:56:07.763Z,15.80
2023-05-20T09:58:37.133Z,16.00
2023-05-20T10:01:08.272Z,16.40
2023-05-20T10:03:36.355Z,16.90
2023-05-20T10:06:20.926Z,17.60
2023-05-20T10:09:14.907Z,18.50
2023-05-20T10:12:17.988Z,18.90
2023-05-20T10:15:30.864Z,19.10
2023-05-20T10:18:20.809Z,18.70
2023-05-20T10:20:49.709Z,18.40
2023-05-20T10:23:31.677Z,18.50
2023-05-20T10:26:06.751Z,18.60
2023-05-20T10:28:37.072Z,18.50
2023-05-20T10:31:18.944Z,19.00
2023-05-20T10:33:48.617Z,19.90
2023-05-20T10:36:32.491Z,20.00
2023-05-20T10:39:01.013Z,20.00
2023-05-20T10:41:30.897Z,19.60
2023-05-20T10:44:07.061Z,19.30
2023-05-20T10:46:51.508Z,19.10
2023-05-20T10:49:27.447Z,19.00
2023-05-20T10:51:56.263Z,18.70
2023-05-20T10:54:24.445Z,18.70
2023-05-20T10:56:54.023Z,19.00
2023-05-20T10:59:22.967Z,19.70
2023-05-20T11:01:51.425Z,20.40
2023-05-20T11:04:20.034Z,21.10
2023-05-20T11:06:54.427Z,21.00
2023-05-20T11:09:23.747Z,21.00
2023-05-20T11:11:52.914Z,21.20
2023-05-20T11:14:22.616Z,21.00
2023-05-20T11:16:56.501Z,20.90
2023-05-20T11:19:25.137Z,21.10
2023-05-20T11:21:54.124Z,21.50
2023-05-20T11:24:27.727Z,21.70
2023-05-20T11:26:57.873Z,22.40
2023-05-20T11:29:29.320Z,22.90
2023-05-20T11:31:57.540Z,22.60
2023-05-20T11:34:28.776Z,22.10
2023-05-20T11:36:58.934Z,21.70
2023-05-20T11:39:31.331Z,21.90
2023-05-20T11:41:59.585Z,22.20
2023-05-20T11:44:28.168Z,22.30
2023-05-20T11:47:03.943Z,22.30
2023-05-20T11:49:40.800Z,22.10
2023-05-20T11:52:13.195Z,22.30
2023-05-20T11:54:43.807Z,21.90
2023-05-20T11:57:14.637Z,21.50
2023-05-20T11:59:45.151Z,21.70
2023-05-20T12:02:14.136Z,22.20
2023-05-20T12:04:44.563Z,22.70
2023-05-20T12:07:12.472Z,22.70
2023-05-20T12:09:40.874Z,22.30
2023-05-20T12:12:08.914Z,22.20
2023-05-20T12:14:37.199Z,22.30
2023-05-20T12:17:05.982Z,22.50
2023-05-20T12:19:36.038Z,22.40
2023-05-20T12:22:04.689Z,21.90
2023-05-20T12:24:35.220Z,21.40
2023-05-20T12:27:04.446Z,21.40
2023-05-20T12:29:33.526Z,21.90
2023-05-20T12:32:01.880Z,22.30
2023-05-20T12:34:33.541Z,22.50
2023-05-20T12:37:01.630Z,22.10
2023-05-20T12:39:29.992Z,21.50
2023-05-20T12:41:58.159Z,21.10
2023-05-20T12:44:26.978Z,20.80
2023-05-20T12:46:55.801Z,20.30
2023-05-20T12:49:24.637Z,20.20
2023-05-20T12:51:54.345Z,20.30
2023-05-20T12:54:23.648Z,20.50
2023-05-20T12:56:51.611Z,20.60
2023-05-20T12:59:19.703Z,20.80
2023-05-20T13:01:50.146Z,20.90
2023-05-20T13:04:19.841Z,21.10
2023-05-20T13:06:50.076Z,21.20
2023-05-20T13:09:19.693Z,21.40
2023-05-20T13:11:49.689Z,21.30
2023-05-20T13:14:17.840Z,21.00
2023-05-20T13:16:48.708Z,20.70
2023-05-20T13:19:22.230Z,20.50
2023-05-20T13:21:51.568Z,20.30
2023-05-20T13:24:21.844Z,20.30
2023-05-20T13:26:49.617Z,20.50
2023-05-20T13:29:19.792Z,20.30
2023-05-20T13:31:49.631Z,20.00
2023-05-20T13:34:18.409Z,20.10
2023-05-20T13:36:48.102Z,20.00
2023-05-20T13:39:17.052Z,20.00
2023-05-20T13:41:46.000Z,20.00
2023-05-20T13:44:14.259Z,19.90
2023-05-20T13:46:42.273Z,19.60
2023-05-20T13:49:10.722Z,19.50
2023-05-20T13:51:38.624Z,19.50
2023-05-20T13:54:07.819Z,19.50
2023-05-20T13:56:36.469Z,19.50
2023-05-20T13:59:04.753Z,19.70
2023-05-20T14:01:33.988Z,20.10
2023-05-20T14:04:02.478Z,20.10
2023-05-20T14:06:32.246Z,20.20
2023-05-20T14:09:03.335Z,20.00
2023-05-20T14:11:32.813Z,19.90
2023-05-20T14:14:01.200Z,19.80
2023-05-20T14:16:29.597Z,19.70
2023-05-20T14:18:58.396Z,19.50
2023-05-20T14:21:27.026Z,19.50
2023-05-20T14:23:55.526Z,19.50
2023-05-20T14:26:23.377Z,19.40
2023-05-20T14:28:54.136Z,19.40
2023-05-20T14:31:22.403Z,19.20
2023-05-20T14:33:51.880Z,19.10
2023-05-20T14:36:19.696Z,19.00
2023-05-20T14:38:49.588Z,19.10
2023-05-20T14:41:17.676Z,19.10
2023-05-20T14:43:47.378Z,19.10
2023-05-20T14:46:18.846Z,19.00
2023-05-20T14:48:48.605Z,19.10
2023-05-20T14:51:16.813Z,19.20
2023-05-20T14:53:44.976Z,19.20
2023-05-20T14:56:12.971Z,19.20
2023-05-20T14:58:41.757Z,19.00
2023-05-20T15:01:09.885Z,18.90
2023-05-20T15:03:38.078Z,18.80
2023-05-20T15:06:06.451Z,18.80
2023-05-20T15:08:35.187Z,18.80
2023-05-20T15:11:04.352Z,18.90
2023-05-20T15:13:32.588Z,18.90
2023-05-20T15:16:00.752Z,19.10
2023-05-20T15:18:29.275Z,19.30
2023-05-20T15:20:57.056Z,19.30
2023-05-20T15:23:25.627Z,19.20
2023-05-20T15:25:55.654Z,19.00
2023-05-20T15:28:26.083Z,19.00
2023-05-20T15:30:57.432Z,18.90
2023-05-20T15:33:26.569Z,18.70
2023-05-20T15:35:54.931Z,18.50
2023-05-20T15:38:23.374Z,18.40
2023-05-20T15:40:51.384Z,18.30
2023-05-20T15:43:20.856Z,18.30
2023-05-20T15:45:53.671Z,18.40
2023-05-20T15:48:23.021Z,18.30
2023-05-20T15:50:50.934Z,18.40
2023-05-20T15:53:20.330Z,18.30
2023-05-20T15:55:48.213Z,18.30
2023-05-20T15:58:17.823Z,18.30
2023-05-20T16:00:46.089Z,18.20
2023-05-20T16:03:14.751Z,18.10
2023-05-20T16:05:42.655Z,18.00
2023-05-20T16:08:11.217Z,17.90
2023-05-20T16:10:40.025Z,17.80
2023-05-20T16:13:08.189Z,17.80
2023-05-20T16:15:38.430Z,17.80
2023-05-20T16:18:06.832Z,17.80
2023-05-20T16:20:35.012Z,17.80
2023-05-20T16:23:03.354Z,17.80
2023-05-20T16:25:31.504Z,17.60
2023-05-20T16:28:01.331Z,17.50
2023-05-20T16:30:29.313Z,17.50
2023-05-20T16:32:57.832Z,17.30
2023-05-20T16:35:26.075Z,17.30
2023-05-20T16:37:54.250Z,17.20
2023-05-20T16:40:22.310Z,17.20
2023-05-20T16:42:50.615Z,17.10
2023-05-20T16:45:18.653Z,17.00
2023-05-20T16:47:49.140Z,17.00
2023-05-20T16:50:17.153Z,17.00
2023-05-20T16:52:45.469Z,17.00
2023-05-20T16:55:14.009Z,16.90
2023-05-20T16:57:43.202Z,16.90
2023-05-20T17:00:11.805Z,16.90
2023-05-20T17:02:40.113Z,16.90
2023-05-20T17:05:08.473Z,16.90
2023-05-20T17:07:36.727Z,16.80
2023-05-20T17:10:04.922Z,16.80
2023-05-20T17:12:33.386Z,16.80
2023-05-20T17:15:03.301Z,16.70
2023-05-20T17:17:31.615Z,16.70
2023-05-20T17:19:59.587Z,16.70
2023-05-20T17:22:27.815Z,16.70
2023-05-20T17:24:56.350Z,16.60
2023-05-20T17:27:24.794Z,16.60
2023-05-20T17:29:52.787Z,16.60
2023-05-20T17:32:23.391Z,16.60
2023-05-20T17:34:52.720Z,16.60
2023-05-20T17:37:22.296Z,16.50
2023-05-20T17:39:50.265Z,16.40
2023-05-20T17:42:19.252Z,16.40
2023-05-20T17:44:47.323Z,16.40
2023-05-20T17:47:21.052Z,16.40
2023-05-20T17:49:49.427Z,16.40
2023-05-20T17:52:20.863Z,16.30
2023-05-20T17:54:49.056Z,16.20
2023-05-20T17:57:20.796Z,16.20
2023-05-20T17:59:49.702Z,16.10
2023-05-20T18:02:18.056Z,16.10
2023-05-20T18:04:46.047Z,16.00
2023-05-20T18:07:14.934Z,16.00
2023-05-20T18:09:48.954Z,16.00
2023-05-20T18:12:17.323Z,15.80
2023-05-20T18:14:45.408Z,15.80
2023-05-20T18:17:13.792Z,15.80
2023-05-20T18:19:41.866Z,15.70
2023-05-20T18:22:10.234Z,15.60
2023-05-20T18:24:42.505Z,15.60
2023-05-20T18:27:12.315Z,15.60
2023-05-20T18:29:40.289Z,15.50
2023-05-20T18:32:12.223Z,15.40
2023-05-20T18:34:40.620Z,15.40
2023-05-20T18:37:10.958Z,15.30
2023-05-20T18:39:39.225Z,15.20
2023-05-20T18:42:07.621Z,15.10
2023-05-20T18:44:36.823Z,15.00
2023-05-20T18:47:07.439Z,15.00
2023-05-20T18:49:35.427Z,14.90
2023-05-20T18:52:03.883Z,14.80
2023-05-20T18:54:31.770Z,14.80
2023-05-20T18:57:00.444Z,14.70
2023-05-20T18:59:28.203Z,14.70
2023-05-20T19:01:56.988Z,14.60
2023-05-20T19:04:25.497Z,14.50
2023-05-20T19:06:53.750Z,14.40
2023-05-20T19:09:21.824Z,14.40
2023-05-20T19:11:52.227Z,14.30
2023-05-20T19:14:20.022Z,14.20
2023-05-20T19:16:48.584Z,14.20
2023-05-20T19:19:16.802Z,14.20
2023-05-20T19:21:45.365Z,14.10
2023-05-20T19:24:13.360Z,14.10
2023-05-20T19:26:41.711Z,14.10
2023-05-20T19:29:09.980Z,14.00
2023-05-20T19:31:41.823Z,14.00
2023-05-20T19:34:10.316Z,14.00
2023-05-20T19:36:40.046Z,14.00
2023-05-20T19:39:08.275Z,13.90
2023-05-20T19:41:37.173Z,13.90
2023-05-20T19:44:06.091Z,13.90
2023-05-20T19:46:34.603Z,13.80
2023-05-20T19:49:02.874Z,13.70
2023-05-20T19:51:31.359Z,13.70
2023-05-20T19:53:59.114Z,13.60
2023-05-20T19:56:29.597Z,13.60
2023-05-20T19:59:02.386Z,13.50
2023-05-20T20:01:31.979Z,13.50
2023-05-20T20:04:00.272Z,13.50
2023-05-20T20:06:28.649Z,13.50
2023-05-20T20:08:57.468Z,13.50
2023-05-20T20:11:29.820Z,13.40
2023-05-20T20:13:59.554Z,13.30
2023-05-20T20:16:27.817Z,13.30
2023-05-20T20:18:56.228Z,13.30
2023-05-20T20:21:26.128Z,13.10
2023-05-20T20:23:54.715Z,13.10
2023-05-20T20:26:26.120Z,13.10
2023-05-20T20:28:54.136Z,13.10
2023-05-20T20:31:23.231Z,13.10
2023-05-20T20:33:51.710Z,13.10
2023-05-20T20:36:20.323Z,13.10
2023-05-20T20:38:48.168Z,13.10
2023-05-20T20:41:16.444Z,13.10
2023-05-20T20:43:47.716Z,13.10
2023-05-20T20:46:15.980Z,13.10
2023-05-20T20:48:47.349Z,13.00
2023-05-20T20:51:16.931Z,13.00
2023-05-20T20:53:47.375Z,13.00
2023-05-20T20:56:16.115Z,13.00
2023-05-20T20:58:45.255Z,13.00
2023-05-20T21:01:17.886Z,13.00
2023-05-20T21:03:46.027Z,13.10
2023-05-20T21:06:14.501Z,13.10
2023-05-20T21:08:43.676Z,13.20
2023-05-20T21:11:12.141Z,13.30
2023-05-20T21:13:41.348Z,13.40
2023-05-20T21:16:09.965Z,13.50
2023-05-20T21:18:37.878Z,13.50
2023-05-20T21:21:12.333Z,13.50
2023-05-20T21:23:41.019Z,13.50
2023-05-20T21:26:09.688Z,13.60
2023-05-20T21:28:37.554Z,13.60
2023-05-20T21:31:06.448Z,13.60
2023-05-20T21:33:36.971Z,13.60
2023-05-20T21:36:05.572Z,13.70
2023-05-20T21:38:34.561Z,13.60
2023-05-20T21:41:02.849Z,13.60
2023-05-20T21:43:31.117Z,13.70
2023-05-20T21:45:59.392Z,13.60
2023-05-20T21:48:27.246Z,13.60
2023-05-20T21:50:56.382Z,13.60
2023-05-20T21:53:24.426Z,13.60
2023-05-20T21:55:52.810Z,13.50
2023-05-20T21:58:20.981Z,13.50
2023-05-20T22:00:49.555Z,13.40
2023-05-20T22:03:17.823Z,13.30
2023-05-20T22:05:46.664Z,13.30
2023-05-20T22:08:14.815Z,13.30
2023-05-20T22:10:44.133Z,13.10
2023-05-20T22:13:13.811Z,13.10
2023-05-20T22:15:42.456Z,13.10
2023-05-20T22:18:12.621Z,13.00
2023-05-20T22:20:42.039Z,13.00
2023-05-20T22:23:10.001Z,13.00
2023-05-20T22:25:38.182Z,12.90
2023-05-20T22:28:06.236Z,12.90
2023-05-20T22:30:34.844Z,12.90
2023-05-20T22:33:02.685Z,12.90
2023-05-20T22:35:30.973Z,12.90
2023-05-20T22:38:00.571Z,12.90
2023-05-20T22:40:28.655Z,12.90
2023-05-20T22:42:56.402Z,13.00
2023-05-20T22:45:24.497Z,13.00
2023-05-20T22:47:53.409Z,13.00
2023-05-20T22:50:21.663Z,13.00
2023-05-20T22:52:49.735Z,13.00
2023-05-20T22:55:18.201Z,13.00
2023-05-20T22:57:46.476Z,12.90
2023-05-20T23:00:15.921Z,12.90
2023-05-20T23:02:46.018Z,12.90
2023-05-20T23:05:14.188Z,12.90
2023-05-20T23:07:42.064Z,12.80
2023-05-20T23:10:10.441Z,12.80
2023-05-20T23:15:25.388Z,12.70
2023-05-20T23:17:53.432Z,12.70
2023-05-20T23:20:22.602Z,12.70
2023-05-20T23:22:50.968Z,12.70
2023-05-20T23:25:19.102Z,12.70
2023-05-20T23:27:47.034Z,12.70
2023-05-20T23:30:15.559Z,12.60
2023-05-20T23:32:44.045Z,12.70
2023-05-20T23:35:13.402Z,12.70
2023-05-20T23:37:42.275Z,12.60
2023-05-20T23:40:10.991Z,12.70
2023-05-20T23:42:39.167Z,12.80
2023-05-20T23:45:07.815Z,12.80
2023-05-20T23:47:36.977Z,12.90
2023-05-20T23:50:05.699Z,13.00
2023-05-20T23:52:33.601Z,13.00
2023-05-20T23:55:01.853Z,13.10
2023-05-20T23:57:29.729Z,13.10
2023-05-20T23:59:58.415Z,13.10
